Latest Coastal Weather Observations for Laverton

IDV60701

Issued at 6:11 am EDT Friday 12 February 2016 (issued every 10 minutes, with the page automatically refreshed every 10 minutes)

About coastal observations | Map of coastal stations | Coastal observations for VIC | Marine services | Other Formats
Station Details ID: 087031 Name: LAVERTON RAAF Lat: -37.86 Lon: 144.76 Height: 20.1 m
Data from the previous 72 hours. | See also: Recent months at Laverton
Date/Time
EDT
Temp

°C
Wind Pressure Rain
since 9am
mm
Weather Cloud Vis
km
Sea
Height
m
Swell
Dir
 
Speed
knots
Gust
knots
hPa Trend Height
m
Period
s
Dir
12/06:00am 18.2 SSE 6 9 1016.3 - 0.0 - Mostly cloudy 10 - - - -
12/05:30am 18.1 SSE 6 9 1015.9 - 0.0 - Cloudy 10 - - - -
12/05:00am 18.1 SSE 7 9 1015.6 - 0.0 - Partly cloudy 10 - - - -
12/04:30am 18.3 SSE 7 10 1015.9 - 0.0 - Partly cloudy 10 - - - -
12/04:00am 18.2 SSE 7 12 1016.2 - 0.0 - Partly cloudy 10 - - - -
12/03:30am 18.0 SSE 7 10 1016.2 - 0.0 - Partly cloudy 10 - - - -
12/03:00am 17.9 SSE 7 10 1016.3 - 0.0 - Mostly cloudy 10 - - - -
12/02:30am 17.7 SSE 6 8 1016.3 - 0.0 - Partly cloudy 10 - - - -
12/02:00am 17.3 SSE 5 7 1016.5 - 0.0 - - 10 - - - -
12/01:30am 17.6 SSE 6 8 1016.8 - 0.0 - - 10 - - - -
12/01:00am 17.9 SSE 6 8 1017.3 - 0.0 - - 10 - - - -
12/12:30am 18.1 SSE 7 9 1017.5 - 0.0 - - 10 - - - -
12/12:00am 18.0 SE 6 9 1017.6 - 0.0 - - 10 - - - -
 
Date/Time
EDT
Temp

°C
Wind Pressure Rain
since 9am
mm
Weather Cloud Vis
km
Sea
Height
m
Swell
Dir
 
Speed
knots
Gust
knots
hPa Trend Height
m
Period
s
Dir
11/11:30pm 18.4 SE 8 12 1017.8 - 0.0 - Partly cloudy 10 - - - -
11/11:00pm 18.6 SE 9 12 1017.8 - 0.0 - Partly cloudy 10 - - - -
11/10:30pm 18.8 SSE 10 14 1018.0 - 0.0 - - 10 - - - -
11/10:00pm 19.0 SE 9 12 1017.8 - 0.0 - Partly cloudy 10 - - - -
11/09:30pm 19.5 SSE 9 13 1017.4 - 0.0 - Partly cloudy 10 - - - -
11/09:00pm 19.6 SSE 10 14 1016.7 - 0.0 - - 10 - - - -
11/08:30pm 19.7 SSE 10 15 1016.3 - 0.0 - - 10 - - - -
11/08:00pm 20.1 SSE 13 20 1016.2 - 0.0 - - 10 - - - -
11/07:30pm 20.7 S 13 17 1016.0 - 0.0 - - 10 - - - -
11/07:00pm 21.1 S 16 20 1015.8 - 0.0 - - 10 - - - -
11/06:30pm 21.6 S 15 19 1015.4 - 0.0 - - 10 - - - -
11/06:00pm 22.4 S 13 18 1015.3 - 0.0 - - 10 - - - -
11/05:30pm 22.5 S 14 18 1015.2 - 0.0 - - 10 - - - -
11/05:00pm 23.3 S 15 20 1015.3 - 0.0 - - 10 - - - -
11/04:30pm 23.8 S 15 23 1015.4 - 0.0 - - 10 - - - -
11/04:00pm 23.6 S 14 19 1015.3 - 0.0 - - 10 - - - -
11/03:30pm 24.0 S 13 19 1015.2 - 0.0 - - 10 - - - -
11/03:00pm 23.3 S 13 18 1015.3 - 0.0 - - 10 - - - -
11/02:30pm 23.3 S 13 19 1015.6 - 0.0 - - 10 - - - -
11/02:00pm 23.5 S 11 15 1015.8 - 0.0 - - 10 - - - -
11/01:30pm 23.0 S 11 15 1015.9 - 0.0 - - 10 - - - -
11/01:00pm 22.5 SSE 9 13 1016.0 - 0.0 - Partly cloudy 10 - - - -
11/12:30pm 22.5 SE 8 13 1016.5 - 0.0 - Partly cloudy 10 - - - -
11/12:00pm 22.7 SSE 10 16 1016.9 - 0.0 - Partly cloudy 10 - - - -
11/11:30am 21.3 SSE 10 13 1017.3 - 0.0 - Partly cloudy 10 - - - -
11/11:00am 22.0 SE 9 13 1017.4 - 0.0 - Partly cloudy 10 - - - -
11/10:30am 21.1 SE 9 16 1017.4 - 0.0 - Partly cloudy 10 - - - -
11/10:00am 20.7 SE 9 13 1017.4 - 0.0 - Partly cloudy 10 - - - -
11/09:30am 20.2 SE 10 13 1017.4 - 0.0 - Partly cloudy 10 - - - -
11/09:00am 20.1 SSE 10 14 1017.4 - 0.0 - Mostly cloudy 10 - - - -
11/08:30am 19.2 SE 9 13 1017.1 - 0.0 - Partly cloudy 10 - - - -
11/08:00am 18.9 SSE 9 12 1017.0 - 0.0 - Partly cloudy 10 - - - -
11/07:30am 18.7 SSE 7 9 1016.8 - 0.0 - Partly cloudy 10 - - - -
11/07:00am 18.7 SE 6 9 1016.4 - 0.0 - Partly cloudy 10 - - - -
11/06:30am 18.7 SSE 5 7 1016.1 - 0.0 - Partly cloudy 10 - - - -
11/06:00am 18.7 SSE 6 8 1015.8 - 0.0 - Cloudy 10 - - - -
11/05:30am 18.7 SSE 7 9 1015.6 - 0.0 - Cloudy 10 - - - -
11/05:00am 18.7 SSE 7 11 1015.4 - 0.0 - Partly cloudy 10 - - - -
11/04:30am 18.7 SSE 7 10 1015.3 - 0.0 - Partly cloudy 10 - - - -
11/04:00am 18.7 SSE 6 9 1015.3 - 0.0 - Partly cloudy 10 - - - -
11/03:30am 18.8 SSE 6 8 1015.3 - 0.0 - Cloudy 10 - - - -
11/03:00am 18.8 SSE 6 8 1015.5 - 0.0 - Cloudy 10 - - - -
11/02:30am 18.8 S 6 8 1015.7 - 0.0 - Partly cloudy 10 - - - -
11/02:00am 18.7 SSE 6 8 1016.0 - 0.0 - Cloudy 10 - - - -
11/01:30am 18.8 SSE 6 9 1016.2 - 0.0 - Cloudy 10 - - - -
11/01:00am 18.9 S 7 9 1016.4 - 0.0 - Cloudy 10 - - - -
11/12:30am 18.8 SSE 7 10 1016.5 - 0.0 - Cloudy 10 - - - -
11/12:00am 18.7 S 7 9 1016.5 - 0.0 - Mostly cloudy 10 - - - -
 
Date/Time
EDT
Temp

°C
Wind Pressure Rain
since 9am
mm
Weather Cloud Vis
km
Sea
Height
m
Swell
Dir
 
Speed
knots
Gust
knots
hPa Trend Height
m
Period
s
Dir
10/11:30pm 18.7 SSE 6 9 1016.6 - 0.0 - Partly cloudy 10 - - - -
10/11:00pm 18.4 SSE 6 9 1016.7 - 0.0 - Partly cloudy 10 - - - -
10/10:30pm 18.4 SSE 7 10 1016.7 - 0.0 - Partly cloudy 10 - - - -
10/10:00pm 18.5 S 8 11 1016.5 - 0.0 - - 10 - - - -
10/09:30pm 18.5 S 9 13 1016.1 - 0.0 - - 10 - - - -
10/09:00pm 18.7 S 11 15 1015.8 - 0.0 - - 10 - - - -
10/08:30pm 18.9 S 11 16 1015.5 - 0.0 - - 10 - - - -
10/08:00pm 19.3 S 12 17 1015.3 - 0.0 - - 10 - - - -
10/07:30pm 20.2 S 11 15 1014.9 - 0.0 - - 10 - - - -
10/07:00pm 21.0 S 10 15 1014.7 - 0.0 - - 10 - - - -
10/06:30pm 21.4 S 10 14 1014.5 - 0.0 - - 10 - - - -
10/06:00pm 21.9 SSE 10 14 1014.3 - 0.0 - - 10 - - - -
10/05:30pm 23.2 SSE 9 13 1014.2 - 0.0 - - 10 - - - -
10/05:00pm 22.9 SSE 10 15 1014.2 - 0.0 - - 10 - - - -
10/04:30pm 23.3 S 10 14 1014.1 - 0.0 - - 10 - - - -
10/04:00pm 22.7 S 11 15 1014.4 - 0.0 - - 10 - - - -
10/03:30pm 23.7 S 10 14 1014.5 - 0.0 - - 10 - - - -
10/03:00pm 23.9 S 9 15 1014.7 - 0.0 - - 10 - - - -
10/02:30pm 22.6 S 11 15 1015.0 - 0.0 - - 10 - - - -
10/02:00pm 22.3 SSE 10 14 1015.2 - 0.0 - - 10 - - - -
10/01:30pm 22.3 SSE 9 15 1015.3 - 0.0 - - 10 - - - -
10/01:00pm 22.7 SSE 9 14 1015.4 - 0.0 - - 10 - - - -
10/12:30pm 22.0 SE 8 13 1015.7 - 0.0 - - 10 - - - -
10/12:00pm 21.9 SE 10 14 1016.0 - 0.0 - - 10 - - - -
10/11:30am 21.4 SSE 7 11 1016.1 - 0.0 - Partly cloudy 10 - - - -
10/11:00am 21.9 S 6 9 1016.2 - 0.0 - Partly cloudy 10 - - - -
10/10:30am 20.8 NE 4 5 1016.3 - 0.0 - Cloudy 10 - - - -
10/10:00am 20.1 SE 4 7 1016.3 - 0.0 - Cloudy 10 - - - -
10/09:30am 19.3 SSW 5 8 1016.4 - 0.0 - Cloudy 10 - - - -
10/09:00am 19.1 S 7 10 1016.4 - 0.0 - Cloudy 10 - - - -
10/08:30am 18.8 SW 6 10 1016.1 - 0.0 - Cloudy 10 - - - -
10/08:00am 18.7 WSW 5 7 1015.8 - 0.0 - Cloudy 10 - - - -
10/07:30am 18.4 WSW 5 7 1015.4 - 0.0 - Cloudy 10 - - - -
10/07:00am 18.2 SW 6 7 1015.3 - 0.0 - Cloudy 10 - - - -
10/06:30am 18.2 SW 6 7 1015.1 - 0.0 - Cloudy 10 - - - -
10/06:00am 18.2 WSW 4 5 1014.8 - 0.0 - Cloudy 10 - - - -
10/05:30am 18.2 SW 3 5 1014.7 - 0.0 - Cloudy 10 - - - -
10/05:00am 18.2 S 3 5 1014.9 - 0.0 - Cloudy 10 - - - -
10/04:30am 18.1 SW 5 7 1015.2 - 0.0 - Cloudy 10 - - - -
10/04:00am 18.1 SW 6 8 1015.5 - 0.0 - Cloudy 10 - - - -
10/03:30am 18.0 SW 6 8 1015.4 - 0.0 - Cloudy 10 - - - -
10/03:00am 17.8 SW 5 6 1015.5 - 0.0 - Cloudy 10 - - - -
10/02:30am 17.4 SW 3 5 1015.8 - 0.0 - Cloudy 10 - - - -
10/02:00am 17.3 WSW 5 7 1016.1 - 0.0 - Partly cloudy 10 - - - -
10/01:30am 16.8 SW 4 5 1016.4 - 0.0 - Partly cloudy 10 - - - -
10/01:00am 17.1 S 4 5 1016.7 - 0.0 - Partly cloudy 10 - - - -
10/12:30am 17.4 S 6 8 1016.8 - 0.0 - Partly cloudy 10 - - - -
10/12:12am 17.6 S 6 7 1016.8 - 0.0 - Partly cloudy 10 - - - -
10/12:00am 17.7 S 6 8 1016.8 - 0.0 - Partly cloudy 10 - - - -
 
Date/Time
EDT
Temp

°C
Wind Pressure Rain
since 9am
mm
Weather Cloud Vis
km
Sea
Height
m
Swell
Dir
 
Speed
knots
Gust
knots
hPa Trend Height
m
Period
s
Dir
09/11:30pm 18.2 S 7 9 1017.2 - 0.0 - Cloudy 10 - - - -
09/11:12pm 18.3 S 7 9 1017.3 - 0.0 - Partly cloudy 10 - - - -
09/11:00pm 18.1 SSW 8 10 1017.4 - 0.0 - Partly cloudy 10 - - - -
09/10:30pm 18.2 S 7 9 1017.6 - 0.0 - - 10 - - - -
09/10:00pm 18.4 S 8 11 1017.5 - 0.0 - - 10 - - - -
09/09:30pm 18.5 S 7 10 1017.4 - 0.0 - - 10 - - - -
09/09:00pm 18.8 S 8 12 1017.3 - 0.0 - - 10 - - - -
09/08:30pm 19.2 S 10 14 1017.4 - 0.0 - - 10 - - - -
09/08:00pm 19.8 SSW 12 15 1017.4 - 0.0 - - 10 - - - -
09/07:30pm 20.5 S 12 15 1017.3 - 0.0 - - 10 - - - -
09/07:00pm 20.8 S 13 16 1017.3 - 0.0 - - 10 - - - -
09/06:30pm 21.6 S 12 17 1017.0 - 0.0 - - 10 - - - -
09/06:00pm 22.0 SSE 12 16 1016.9 - 0.0 - - 10 - - - -
09/05:30pm 22.6 S 13 18 1017.2 - 0.0 - - 10 - - - -
09/05:00pm 22.7 SSE 12 16 1017.6 - 0.0 - - 10 - - - -
09/04:30pm 23.2 S 11 14 1017.8 - 0.0 - - 10 - - - -
09/04:00pm 23.8 S 10 15 1018.1 - 0.0 - - 10 - - - -
09/03:30pm 23.6 S 8 12 1018.4 - 0.0 - - 10 - - - -
09/03:00pm 23.4 SSE 8 13 1018.8 - 0.0 - - 10 - - - -
09/02:30pm 23.3 SSE 8 12 1019.2 - 0.0 - - 10 - - - -
09/02:00pm 23.0 S 9 14 1019.5 - 0.0 - - 10 - - - -
09/01:30pm 22.5 SSE 8 11 1019.8 - 0.0 - - 10 - - - -
09/01:00pm 21.9 SSE 9 13 1020.2 - 0.0 - - 10 - - - -
09/12:30pm 21.8 SSE 7 12 1020.6 - 0.0 - - 10 - - - -
09/12:00pm 20.9 SE 9 15 1021.0 - 0.0 - - 10 - - - -
09/11:30am 20.6 SSE 8 12 1021.3 - 0.0 - Partly cloudy 10 - - - -
09/11:00am 20.5 SE 8 11 1021.4 - 0.0 - Cloudy 10 - - - -
09/10:30am 19.8 SE 7 10 1021.5 - 0.0 - Cloudy 10 - - - -
09/10:00am 19.4 SE 7 11 1021.6 - 0.0 - Cloudy 10 - - - -
09/09:30am 19.1 S 6 9 1021.8 - 0.0 - Cloudy 10 - - - -
09/09:00am 19.1 SE 6 9 1021.9 - 0.0 - Cloudy 10 - - - -
09/08:30am 18.3 SSE 7 9 1021.9 - - - Cloudy 10 - - - -
09/08:00am 18.2 SE 4 6 1021.8 - - - Cloudy 10 - - - -
09/07:30am 17.8 SE 5 7 1021.7 - - - Cloudy 10 - - - -
09/07:00am 17.6 SSE 6 8 1021.4 - - - Cloudy 10 - - - -
09/06:30am 17.7 SSE 7 10 1021.5 - - - Cloudy 10 - - - -

Other Formats:

Comma delimited format used in spreadsheet applications
http://www.bom.gov.au/fwo/IDV60701/IDV60701.94865.axf

JavaScript Object Notation format (JSON) in row-major order
http://www.bom.gov.au/fwo/IDV60701/IDV60701.94865.json